Time;durP1;ratioP1;P1;durP2;ratioP2;P2;SDS_P1;SDS_P2;PMS_P1;PMS_P2;Temp;Humidity;BMP_temperature;BMP_pressure;BME280_temperature;BME280_humidity;BME280_pressure;Samples;Min_cycle;Max_cycle;Signal;HPM_P1;HPM_P2
2022/10/26 00:00:25;;;;;;;14.35;3.83;;;15.30;99.90;;;;;;5096715;28;20052;-65
2022/10/26 00:02:53;;;;;;;10.50;2.15;;;15.40;99.90;;;;;;5092471;28;20558;-65
2022/10/26 00:05:21;;;;;;;10.18;2.75;;;15.40;99.90;;;;;;5092286;28;20048;-65
2022/10/26 00:07:48;;;;;;;8.73;1.98;;;15.40;99.90;;;;;;5094327;28;20051;-65
2022/10/26 00:10:15;;;;;;;12.40;2.67;;;15.40;99.90;;;;;;5094548;28;20114;-65
2022/10/26 00:12:42;;;;;;;9.68;2.05;;;15.50;99.90;;;;;;5094212;28;20123;-65
2022/10/26 00:15:09;;;;;;;10.95;2.40;;;15.50;99.90;;;;;;5078579;28;20048;-65
2022/10/26 00:17:36;;;;;;;8.60;1.63;;;15.50;99.90;;;;;;5092597;28;20075;-65
2022/10/26 00:20:03;;;;;;;8.45;2.42;;;15.50;99.90;;;;;;5091524;28;20715;-65
2022/10/26 00:22:29;;;;;;;11.75;2.33;;;15.50;99.90;;;;;;5074024;28;20213;-65
2022/10/26 00:24:56;;;;;;;10.27;2.40;;;15.50;99.90;;;;;;5091551;28;20048;-65
2022/10/26 00:27:23;;;;;;;12.13;2.10;;;15.50;99.90;;;;;;5091548;28;20044;-65
2022/10/26 00:29:49;;;;;;;11.35;2.33;;;15.50;99.90;;;;;;5091646;28;20407;-65
2022/10/26 00:32:16;;;;;;;11.10;2.03;;;15.50;99.90;;;;;;5091480;28;20079;-65
2022/10/26 00:34:43;;;;;;;12.82;2.08;;;15.50;99.90;;;;;;5091381;28;20422;-65
2022/10/26 00:37:10;;;;;;;10.27;2.75;;;15.50;99.90;;;;;;5091754;28;20044;-65
2022/10/26 00:39:36;;;;;;;11.32;2.33;;;15.50;99.90;;;;;;5091515;28;20063;-65
2022/10/26 00:42:03;;;;;;;14.57;1.98;;;15.60;99.90;;;;;;5091547;28;20052;-65
2022/10/26 00:44:48;;;;;;;15.80;2.30;;;15.50;99.90;;;;;;5073409;28;20062;-65
2022/10/26 00:47:16;;;;;;;10.25;1.95;;;15.60;99.90;;;;;;5090950;28;20066;-65
2022/10/26 00:49:45;;;;;;;6.93;2.13;;;15.50;99.90;;;;;;5091620;28;20052;-65
2022/10/26 00:52:12;;;;;;;6.95;1.90;;;15.60;99.90;;;;;;5074296;28;20135;-65
2022/10/26 00:54:39;;;;;;;17.50;2.47;;;15.60;99.90;;;;;;5057130;28;20048;-65
2022/10/26 00:57:06;;;;;;;11.65;2.55;;;15.60;99.90;;;;;;5091378;28;20040;-65
2022/10/26 00:59:32;;;;;;;7.50;1.92;;;15.60;99.90;;;;;;5073735;28;20056;-65
2022/10/26 01:01:59;;;;;;;7.93;2.03;;;15.60;99.90;;;;;;5056642;28;20499;-65
2022/10/26 01:04:26;;;;;;;11.15;2.72;;;15.60;99.90;;;;;;5056756;28;20051;-65
2022/10/26 01:06:53;;;;;;;12.50;2.00;;;15.60;99.90;;;;;;5091227;28;20055;-65
2022/10/26 01:09:19;;;;;;;11.02;1.92;;;15.60;99.90;;;;;;5056984;28;20062;-65
2022/10/26 01:11:46;;;;;;;6.95;1.35;;;15.60;99.90;;;;;;5073521;28;20040;-65
2022/10/26 01:14:13;;;;;;;18.40;2.40;;;15.60;99.90;;;;;;5073360;28;20411;-65
2022/10/26 01:16:49;;;;;;;10.60;1.90;;;15.60;99.90;;;;;;5073797;28;20415;-65
2022/10/26 01:19:53;;;;;;;7.35;2.20;;;15.60;99.90;;;;;;5073500;28;20053;-65
2022/10/26 01:22:21;;;;;;;12.65;2.10;;;15.60;99.90;;;;;;5071735;28;20047;-65
2022/10/26 01:25:15;;;;;;;9.80;2.20;;;15.60;99.90;;;;;;5072879;28;20128;-65
2022/10/26 01:27:44;;;;;;;9.25;2.28;;;15.60;99.90;;;;;;5073382;28;20389;-65
2022/10/26 01:30:18;;;;;;;11.27;2.17;;;15.60;99.90;;;;;;5073565;28;20080;-65
2022/10/26 01:33:03;;;;;;;6.68;2.10;;;15.60;99.90;;;;;;5074655;28;20056;-64
2022/10/26 01:35:50;;;;;;;15.10;3.35;;;15.60;99.90;;;;;;5073689;28;20053;-65
2022/10/26 01:38:23;;;;;;;10.95;2.40;;;15.60;99.90;;;;;;5073670;28;20445;-64
2022/10/26 01:40:55;;;;;;;12.68;2.15;;;15.60;99.90;;;;;;5073607;28;20040;-64
2022/10/26 01:43:22;;;;;;;14.80;2.45;;;15.60;99.90;;;;;;5072850;28;20048;-64
2022/10/26 01:45:48;;;;;;;9.32;1.95;;;15.60;99.90;;;;;;5073128;28;20076;-64
2022/10/26 01:48:16;;;;;;;12.82;2.70;;;15.60;99.90;;;;;;5056590;28;20053;-64
2022/10/26 01:50:44;;;;;;;10.10;2.47;;;15.60;99.90;;;;;;5056664;28;20483;-64
2022/10/26 01:53:12;;;;;;;9.25;2.00;;;15.60;99.90;;;;;;5056611;28;20568;-64
2022/10/26 01:55:49;;;;;;;11.68;1.95;;;15.60;99.90;;;;;;5074225;28;20048;-64
2022/10/26 01:58:54;;;;;;;12.07;3.03;;;15.70;99.90;;;;;;5074461;28;20055;-64
2022/10/26 02:01:57;;;;;;;15.30;2.38;;;15.60;99.90;;;;;;5074029;28;20055;-64
2022/10/26 02:04:28;;;;;;;11.85;2.05;;;15.60;99.90;;;;;;5040088;28;20380;-64
2022/10/26 02:07:34;;;;;;;7.43;1.77;;;15.60;99.90;;;;;;5072942;28;20052;-65
2022/10/26 02:10:04;;;;;;;17.45;2.08;;;15.60;99.90;;;;;;5015309;28;20053;-64
2022/10/26 02:12:43;;;;;;;9.10;1.77;;;15.60;99.90;;;;;;5067379;28;20041;-64
2022/10/26 02:15:15;;;;;;;11.05;2.65;;;15.60;99.90;;;;;;5073992;28;20040;-65
2022/10/26 02:17:53;;;;;;;15.15;3.35;;;15.60;99.90;;;;;;5056372;28;20049;-65
2022/10/26 02:20:26;;;;;;;14.13;2.90;;;15.60;99.90;;;;;;5075857;28;20056;-64
2022/10/26 02:22:54;;;;;;;9.93;2.38;;;15.60;99.90;;;;;;5075900;28;20499;-64
2022/10/26 02:25:27;;;;;;;10.50;1.95;;;15.60;99.90;;;;;;5075903;28;20051;-64
2022/10/26 02:28:08;;;;;;;14.63;2.58;;;15.60;99.90;;;;;;5075494;28;20052;-64
2022/10/26 02:30:35;;;;;;;14.63;2.10;;;15.60;99.90;;;;;;5077128;28;20048;-64
2022/10/26 02:33:02;;;;;;;16.90;2.55;;;15.60;99.90;;;;;;5093456;28;20059;-64
2022/10/26 02:35:30;;;;;;;13.48;1.83;;;15.60;99.90;;;;;;5093704;28;20488;-64
2022/10/26 02:37:58;;;;;;;12.95;3.38;;;15.60;99.90;;;;;;5075691;28;20044;-64
2022/10/26 02:40:26;;;;;;;14.30;2.47;;;15.60;99.90;;;;;;5059433;28;20044;-64
2022/10/26 02:42:54;;;;;;;16.30;4.38;;;15.60;99.90;;;;;;5093376;28;20048;-64
2022/10/26 02:45:26;;;;;;;9.85;3.20;;;15.60;99.90;;;;;;5075589;28;20414;-64
2022/10/26 02:47:53;;;;;;;13.45;2.25;;;15.50;99.90;;;;;;5059241;28;20048;-64
2022/10/26 02:50:21;;;;;;;9.23;2.30;;;15.50;99.90;;;;;;5093458;28;20056;-66
2022/10/26 02:53:08;;;;;;;8.30;1.92;;;15.50;99.90;;;;;;5059232;28;20075;-64
2022/10/26 02:55:39;;;;;;;12.25;2.50;;;15.50;99.90;;;;;;5076082;28;20047;-64
2022/10/26 02:58:10;;;;;;;8.68;1.60;;;15.50;99.90;;;;;;5058873;28;20054;-64
2022/10/26 03:00:37;;;;;;;8.75;2.20;;;15.50;99.90;;;;;;5075662;28;20478;-63
2022/10/26 03:03:04;;;;;;;19.38;2.40;;;15.50;99.90;;;;;;5074814;28;20048;-66
2022/10/26 03:05:35;;;;;;;18.30;2.80;;;15.40;99.90;;;;;;5075191;28;20058;-64
2022/10/26 03:08:02;;;;;;;11.55;1.80;;;15.40;99.90;;;;;;5093128;28;20086;-64
2022/10/26 03:10:29;;;;;;;10.32;2.60;;;15.40;99.90;;;;;;5096318;28;20134;-64
2022/10/26 03:12:56;;;;;;;16.50;2.42;;;15.50;99.90;;;;;;5098048;28;20048;-65
2022/10/26 03:15:22;;;;;;;9.88;2.75;;;15.40;99.90;;;;;;5074288;28;20053;-64
2022/10/26 03:17:49;;;;;;;13.80;3.03;;;15.40;99.90;;;;;;5072326;28;20499;-65
2022/10/26 03:20:16;;;;;;;8.70;2.20;;;15.50;99.90;;;;;;5089481;28;20052;-65
2022/10/26 03:22:43;;;;;;;16.00;3.08;;;15.50;99.90;;;;;;5092503;28;20058;-64
2022/10/26 03:25:10;;;;;;;8.98;2.00;;;15.50;99.90;;;;;;5074031;28;20044;-64
2022/10/26 03:27:36;;;;;;;9.85;2.00;;;15.50;99.90;;;;;;5092433;28;20062;-64
2022/10/26 03:30:04;;;;;;;15.35;2.67;;;15.50;99.90;;;;;;5092740;28;20048;-65
2022/10/26 03:32:30;;;;;;;9.98;2.15;;;15.50;99.90;;;;;;5092425;28;20048;-65
2022/10/26 03:34:57;;;;;;;14.90;2.85;;;15.50;99.90;;;;;;5092396;28;20134;-64
2022/10/26 03:37:24;;;;;;;10.65;2.45;;;15.40;99.90;;;;;;5074410;28;20040;-64
2022/10/26 03:39:51;;;;;;;20.00;2.67;;;15.50;99.90;;;;;;5091514;28;20491;-65
2022/10/26 03:42:17;;;;;;;8.85;2.30;;;15.40;99.90;;;;;;5092087;28;20468;-64
2022/10/26 03:44:46;;;;;;;11.55;2.55;;;15.40;99.90;;;;;;5091989;28;20040;-64
2022/10/26 03:47:12;;;;;;;10.25;2.63;;;15.50;99.90;;;;;;5091938;28;20062;-65
2022/10/26 03:49:39;;;;;;;16.05;3.42;;;15.40;99.90;;;;;;5074012;28;20044;-64
2022/10/26 03:52:06;;;;;;;16.42;2.83;;;15.40;99.90;;;;;;5074259;28;20066;-64
2022/10/26 03:54:32;;;;;;;9.68;2.83;;;15.40;99.90;;;;;;5092150;28;20051;-65
2022/10/26 03:56:59;;;;;;;12.00;2.28;;;15.50;99.90;;;;;;5092069;28;20043;-64
2022/10/26 03:59:26;;;;;;;14.80;2.30;;;15.50;99.90;;;;;;5092121;28;20093;-64
2022/10/26 04:01:53;;;;;;;7.53;2.13;;;15.50;99.90;;;;;;5091772;28;20048;-64
2022/10/26 04:04:23;;;;;;;10.13;2.60;;;15.60;99.90;;;;;;5088412;28;20052;-64
2022/10/26 04:06:50;;;;;;;20.48;4.22;;;15.70;99.90;;;;;;5084513;28;20051;-66
2022/10/26 04:09:17;;;;;;;17.38;2.42;;;15.70;99.90;;;;;;5091600;28;20058;-64
2022/10/26 04:11:44;;;;;;;10.45;2.55;;;15.70;99.90;;;;;;5057598;28;20044;-64
2022/10/26 04:14:11;;;;;;;8.57;2.65;;;15.80;99.90;;;;;;5092112;28;20406;-64
2022/10/26 04:16:37;;;;;;;16.20;3.05;;;15.80;99.90;;;;;;5091878;28;20048;-64
2022/10/26 04:19:04;;;;;;;15.88;2.30;;;15.90;99.90;;;;;;5057096;28;20086;-64
2022/10/26 04:21:34;;;;;;;14.70;2.33;;;16.00;99.90;;;;;;5091786;28;20051;-64
2022/10/26 04:24:01;;;;;;;13.38;2.58;;;16.00;99.90;;;;;;5091308;28;20135;-64
2022/10/26 04:26:28;;;;;;;14.27;2.80;;;16.10;99.90;;;;;;5091948;28;20052;-64
2022/10/26 04:28:54;;;;;;;17.27;3.38;;;16.10;99.90;;;;;;5073566;28;20491;-64
2022/10/26 04:31:21;;;;;;;14.10;2.38;;;16.10;99.90;;;;;;5091438;28;20055;-64
2022/10/26 04:33:48;;;;;;;11.15;2.10;;;16.20;99.90;;;;;;5091401;28;20044;-64
2022/10/26 04:36:14;;;;;;;10.80;2.20;;;16.20;99.90;;;;;;5091913;28;20063;-64
2022/10/26 04:38:41;;;;;;;14.30;2.40;;;16.20;99.90;;;;;;5091560;28;20153;-64
2022/10/26 04:41:08;;;;;;;11.57;2.53;;;16.20;99.90;;;;;;5073261;28;20583;-64
2022/10/26 04:43:35;;;;;;;21.75;3.40;;;16.20;99.90;;;;;;5091541;28;20044;-66
2022/10/26 04:46:01;;;;;;;9.95;3.05;;;16.30;99.90;;;;;;5091511;28;20572;-64
2022/10/26 04:48:28;;;;;;;26.85;3.58;;;16.30;99.90;;;;;;5091139;28;20054;-64
2022/10/26 04:50:58;;;;;;;20.05;3.08;;;16.30;99.90;;;;;;5074633;28;20044;-64
2022/10/26 04:53:25;;;;;;;13.05;2.58;;;16.40;99.90;;;;;;5077869;28;20048;-64
2022/10/26 04:55:59;;;;;;;12.10;2.60;;;16.30;99.90;;;;;;5077707;28;20051;-64
2022/10/26 04:58:26;;;;;;;17.70;3.55;;;16.30;99.90;;;;;;5077816;28;20048;-64
2022/10/26 05:00:53;;;;;;;10.60;1.98;;;16.30;99.90;;;;;;5077428;28;20058;-64
2022/10/26 05:03:20;;;;;;;12.18;2.65;;;16.30;99.90;;;;;;5095165;28;20048;-64
2022/10/26 05:05:47;;;;;;;10.93;2.47;;;16.30;99.90;;;;;;5095108;28;20043;-64
2022/10/26 05:08:14;;;;;;;13.75;2.90;;;16.30;99.90;;;;;;5095175;28;20055;-65
2022/10/26 05:10:41;;;;;;;15.55;2.58;;;16.30;99.90;;;;;;5095563;28;20060;-64
2022/10/26 05:13:08;;;;;;;22.65;2.75;;;16.30;99.90;;;;;;5095199;28;20052;-64
2022/10/26 05:15:34;;;;;;;15.23;2.67;;;16.20;99.90;;;;;;5095222;28;20048;-64
2022/10/26 05:18:02;;;;;;;12.07;2.35;;;16.20;99.90;;;;;;5094876;28;20110;-65
2022/10/26 05:20:30;;;;;;;10.30;2.00;;;16.10;99.90;;;;;;5095177;28;20056;-64
2022/10/26 05:22:57;;;;;;;8.93;2.08;;;16.10;99.90;;;;;;5095016;28;20056;-64
2022/10/26 05:25:24;;;;;;;12.02;2.70;;;16.10;99.90;;;;;;5095185;28;20044;-64
2022/10/26 05:27:51;;;;;;;6.20;1.98;;;16.00;99.90;;;;;;5076912;28;20464;-64
2022/10/26 05:30:18;;;;;;;13.68;3.20;;;16.00;99.90;;;;;;5094853;28;20360;-64
2022/10/26 05:32:51;;;;;;;16.70;2.70;;;16.00;99.90;;;;;;5094401;28;20475;-64
2022/10/26 05:35:18;;;;;;;18.77;2.80;;;16.00;99.90;;;;;;5078017;28;20447;-64
2022/10/26 05:37:45;;;;;;;15.65;2.80;;;15.90;99.90;;;;;;5094879;28;20143;-64
2022/10/26 05:40:12;;;;;;;9.82;2.22;;;15.90;99.90;;;;;;5094366;28;20154;-65
2022/10/26 05:42:38;;;;;;;6.72;2.38;;;15.90;99.90;;;;;;5076331;28;20510;-65
2022/10/26 05:45:05;;;;;;;12.38;2.10;;;15.90;99.90;;;;;;5059953;28;20055;-65
2022/10/26 05:47:36;;;;;;;12.10;2.13;;;15.90;99.90;;;;;;5076717;28;20051;-66
2022/10/26 05:50:03;;;;;;;13.90;2.63;;;15.90;99.90;;;;;;5077186;28;20062;-65
2022/10/26 05:52:30;;;;;;;18.80;2.88;;;15.80;99.90;;;;;;5094408;28;20051;-65
2022/10/26 05:54:56;;;;;;;10.05;2.70;;;15.80;99.90;;;;;;5094399;28;20050;-65
2022/10/26 05:57:23;;;;;;;8.25;1.67;;;15.80;99.90;;;;;;5094233;28;20087;-65
2022/10/26 05:59:50;;;;;;;14.35;2.35;;;15.80;99.90;;;;;;5094045;28;20052;-64
2022/10/26 06:02:40;;;;;;;11.50;2.20;;;15.80;99.90;;;;;;5093190;28;20663;-65
2022/10/26 06:05:09;;;;;;;12.38;2.55;;;15.90;99.90;;;;;;5094051;28;20109;-65
2022/10/26 06:07:36;;;;;;;15.73;2.10;;;15.90;99.90;;;;;;5076435;28;20052;-65
2022/10/26 06:10:04;;;;;;;11.15;2.47;;;16.00;99.90;;;;;;5093648;28;20074;-64
2022/10/26 06:12:31;;;;;;;21.13;5.28;;;16.00;99.90;;;;;;5076246;28;20770;-65
2022/10/26 06:14:58;;;;;;;9.30;2.03;;;16.00;99.90;;;;;;5093958;28;20048;-64
2022/10/26 06:17:34;;;;;;;12.77;2.28;;;16.00;99.90;;;;;;5093281;28;20052;-64
2022/10/26 06:20:11;;;;;;;17.38;2.72;;;16.00;99.90;;;;;;5076425;28;20048;-65
2022/10/26 06:22:44;;;;;;;20.60;2.13;;;16.00;99.90;;;;;;5075286;28;20079;-64
2022/10/26 06:25:33;;;;;;;10.15;2.83;;;15.90;99.90;;;;;;5076002;28;20048;-65
2022/10/26 06:28:18;;;;;;;10.30;1.95;;;16.00;99.90;;;;;;5093184;28;20135;-64
2022/10/26 06:30:45;;;;;;;10.57;2.08;;;16.00;99.90;;;;;;5092938;28;20562;-64
2022/10/26 06:33:12;;;;;;;12.18;2.50;;;16.00;99.90;;;;;;5075252;28;20043;-64
2022/10/26 06:36:19;;;;;;;10.13;1.70;;;16.00;99.90;;;;;;5077605;28;20055;-65
2022/10/26 06:38:47;;;;;;;14.70;2.92;;;16.00;99.90;;;;;;5061090;28;20041;-64
2022/10/26 06:41:14;;;;;;;14.15;2.65;;;16.00;99.90;;;;;;5092647;28;20048;-65
2022/10/26 06:43:41;;;;;;;11.90;2.50;;;15.90;99.90;;;;;;5074919;28;20074;-64
2022/10/26 06:46:23;;;;;;;8.65;1.77;;;15.90;99.90;;;;;;5092563;28;20047;-64
2022/10/26 06:49:11;;;;;;;18.15;2.53;;;15.90;99.90;;;;;;5092775;28;20054;-64
2022/10/26 06:51:45;;;;;;;16.35;2.47;;;15.90;99.90;;;;;;5092863;28;20051;-64
2022/10/26 06:54:45;;;;;;;14.15;2.22;;;15.90;99.90;;;;;;5059723;28;20048;-64
2022/10/26 06:57:13;;;;;;;15.73;2.45;;;15.90;99.90;;;;;;5065093;28;20044;-64
2022/10/26 06:59:49;;;;;;;6.38;1.70;;;15.90;99.90;;;;;;5092815;28;20044;-66
2022/10/26 07:02:16;;;;;;;14.32;2.03;;;15.90;99.90;;;;;;5074988;28;20044;-64
2022/10/26 07:04:43;;;;;;;13.20;2.92;;;15.90;99.90;;;;;;5054671;28;20045;-66
2022/10/26 07:07:11;;;;;;;10.52;2.08;;;15.90;99.90;;;;;;5038015;28;20052;-64
2022/10/26 07:09:38;;;;;;;18.15;2.53;;;16.00;99.90;;;;;;5038022;28;20117;-64
2022/10/26 07:12:05;;;;;;;10.10;1.92;;;16.00;99.90;;;;;;5085157;28;20047;-64
2022/10/26 07:14:32;;;;;;;8.32;2.33;;;16.00;99.90;;;;;;5092037;28;20075;-64
2022/10/26 07:16:59;;;;;;;11.07;1.98;;;16.00;99.90;;;;;;5092071;28;20101;-64
2022/10/26 07:19:25;;;;;;;13.63;2.33;;;16.00;99.90;;;;;;5092223;28;20078;-65
2022/10/26 07:21:55;;;;;;;13.40;2.03;;;16.00;99.90;;;;;;5092343;28;20533;-64
2022/10/26 07:24:22;;;;;;;10.25;2.88;;;16.00;99.90;;;;;;5092963;28;20048;-64
2022/10/26 07:26:49;;;;;;;14.45;2.65;;;16.00;99.90;;;;;;5076009;28;20044;-65
2022/10/26 07:29:17;;;;;;;9.05;2.28;;;16.00;99.90;;;;;;5095652;28;20044;-65
2022/10/26 07:31:43;;;;;;;14.43;2.05;;;16.00;99.90;;;;;;5096605;28;20076;-65
2022/10/26 07:34:10;;;;;;;20.35;1.83;;;16.00;99.90;;;;;;5093294;28;20043;-64
2022/10/26 07:36:38;;;;;;;9.88;2.25;;;16.00;99.90;;;;;;5092510;28;20150;-64
2022/10/26 07:39:05;;;;;;;12.05;2.03;;;16.00;99.90;;;;;;5092371;28;20123;-64
2022/10/26 07:41:32;;;;;;;14.38;2.17;;;16.00;99.90;;;;;;5073857;28;20044;-64
2022/10/26 07:43:59;;;;;;;12.65;2.20;;;16.00;99.90;;;;;;5091694;28;20127;-65
2022/10/26 07:46:26;;;;;;;21.08;2.20;;;16.00;99.90;;;;;;5091646;28;20506;-64
2022/10/26 07:48:53;;;;;;;10.75;2.17;;;16.00;99.90;;;;;;5091988;28;20055;-65
2022/10/26 07:51:20;;;;;;;12.68;1.92;;;16.10;99.90;;;;;;5092007;28;20486;-65
2022/10/26 07:53:46;;;;;;;11.45;2.90;;;16.10;99.90;;;;;;5091954;28;20487;-66
2022/10/26 07:56:13;;;;;;;15.63;2.88;;;16.10;99.90;;;;;;5091816;28;20040;-66
2022/10/26 07:58:40;;;;;;;9.70;2.28;;;16.20;99.90;;;;;;5073633;28;20048;-65
2022/10/26 08:01:08;;;;;;;6.82;1.58;;;16.20;99.90;;;;;;5091562;28;20073;-65
2022/10/26 08:03:35;;;;;;;13.15;2.60;;;16.30;99.90;;;;;;5091570;28;20510;-66
2022/10/26 08:06:03;;;;;;;15.85;2.17;;;16.30;99.90;;;;;;5107441;28;20047;-65
2022/10/26 08:08:31;;;;;;;13.60;1.77;;;16.40;99.90;;;;;;5077329;28;20050;-65
2022/10/26 08:10:57;;;;;;;16.38;3.70;;;16.40;99.90;;;;;;5088660;28;20222;-65
2022/10/26 08:13:24;;;;;;;11.07;2.60;;;16.50;99.90;;;;;;5091209;28;20130;-66
2022/10/26 08:16:01;;;;;;;10.55;2.95;;;16.50;99.90;;;;;;5088319;28;20052;-66
2022/10/26 08:18:28;;;;;;;12.40;2.83;;;16.50;99.90;;;;;;5091425;28;20048;-66
2022/10/26 08:21:00;;;;;;;10.32;3.00;;;16.60;99.90;;;;;;5071210;28;20051;-65
2022/10/26 08:23:37;;;;;;;12.57;2.53;;;16.60;99.90;;;;;;5087979;28;20444;-65
2022/10/26 08:26:03;;;;;;;17.98;2.85;;;16.70;99.90;;;;;;5069831;28;20333;-65
2022/10/26 08:28:30;;;;;;;18.13;3.70;;;16.60;99.90;;;;;;5087607;28;20415;-63
2022/10/26 08:30:57;;;;;;;20.17;3.10;;;16.70;99.90;;;;;;5087748;28;20381;-66
2022/10/26 08:33:24;;;;;;;22.38;3.17;;;16.70;99.90;;;;;;5087247;28;20044;-63
2022/10/26 08:35:57;;;;;;;13.43;2.70;;;16.80;99.90;;;;;;5069642;28;20052;-63
2022/10/26 08:38:24;;;;;;;15.75;2.50;;;16.80;99.90;;;;;;5087640;28;20052;-65
2022/10/26 08:40:51;;;;;;;28.33;2.88;;;16.80;99.90;;;;;;5087642;28;20440;-63
2022/10/26 08:43:23;;;;;;;10.18;2.30;;;16.80;99.90;;;;;;5069823;28;20322;-65
2022/10/26 08:45:53;;;;;;;8.82;3.33;;;16.90;99.90;;;;;;5069455;28;20438;-64
2022/10/26 08:48:23;;;;;;;14.15;3.67;;;17.10;99.90;;;;;;5082268;28;20508;-64
2022/10/26 08:50:54;;;;;;;31.80;4.13;;;17.40;99.90;;;;;;5049649;28;20052;-64
2022/10/26 08:53:42;;;;;;;14.93;3.20;;;17.70;99.90;;;;;;5067722;28;20135;-64
2022/10/26 08:56:21;;;;;;;16.20;3.22;;;17.90;99.90;;;;;;5050582;28;20052;-64
2022/10/26 08:58:55;;;;;;;13.43;2.85;;;18.10;99.90;;;;;;5051589;28;20072;-64
2022/10/26 09:01:22;;;;;;;13.88;3.42;;;18.10;99.90;;;;;;5052328;28;20510;-64
2022/10/26 09:03:49;;;;;;;16.05;2.58;;;18.00;99.90;;;;;;5035972;28;20052;-65
2022/10/26 09:06:20;;;;;;;15.35;2.80;;;17.90;99.90;;;;;;5070849;28;20048;-64
2022/10/26 09:08:56;;;;;;;18.65;3.03;;;17.80;99.90;;;;;;5052492;28;20180;-65
2022/10/26 09:11:38;;;;;;;17.17;3.33;;;17.80;99.90;;;;;;5052552;28;20052;-63
2022/10/26 09:14:37;;;;;;;17.92;3.88;;;17.70;99.90;;;;;;5070909;28;20059;-64
2022/10/26 09:17:19;;;;;;;18.00;3.45;;;17.70;99.90;;;;;;5071216;28;20525;-65
2022/10/26 09:20:04;;;;;;;9.55;2.03;;;17.70;99.90;;;;;;5070394;28;20056;-64
2022/10/26 09:22:40;;;;;;;15.45;3.33;;;17.70;99.90;;;;;;5054743;28;20103;-64
2022/10/26 09:25:19;;;;;;;24.80;3.33;;;17.70;99.90;;;;;;5070458;28;20143;-63
2022/10/26 09:27:54;;;;;;;23.73;3.38;;;17.70;99.90;;;;;;5051971;28;20052;-66
2022/10/26 09:30:21;;;;;;;15.43;2.35;;;17.80;99.90;;;;;;5067978;28;20427;-66
2022/10/26 09:32:55;;;;;;;17.83;2.78;;;17.80;99.90;;;;;;5067277;28;20049;-65
2022/10/26 09:35:30;;;;;;;34.35;3.13;;;17.90;99.90;;;;;;5049687;28;20060;-64
2022/10/26 09:38:09;;;;;;;15.65;2.70;;;17.90;99.90;;;;;;5050529;28;20048;-64
2022/10/26 09:40:41;;;;;;;17.67;3.20;;;17.80;99.90;;;;;;5052801;28;20380;-64
2022/10/26 09:43:11;;;;;;;17.73;2.42;;;17.70;99.90;;;;;;5053232;28;20268;-65
2022/10/26 09:45:49;;;;;;;15.90;2.60;;;17.70;99.90;;;;;;5070590;28;20150;-63
2022/10/26 09:48:20;;;;;;;17.27;2.28;;;17.60;99.90;;;;;;4693474;28;9999770;-65
2022/10/26 09:50:48;;;;;;;20.05;2.33;;;17.60;99.90;;;;;;5055775;28;20052;-62
2022/10/26 09:53:15;;;;;;;16.25;2.65;;;17.60;99.90;;;;;;5071978;28;20085;-63
2022/10/26 09:55:44;;;;;;;22.73;4.00;;;17.70;99.90;;;;;;5092158;28;20044;-64
2022/10/26 09:58:26;;;;;;;11.20;2.20;;;17.70;99.90;;;;;;5071444;28;20052;-63
2022/10/26 10:00:53;;;;;;;9.20;2.45;;;17.70;99.90;;;;;;5105947;28;20418;-63
2022/10/26 10:03:27;;;;;;;10.90;2.03;;;17.60;99.90;;;;;;5075987;28;20056;-64
2022/10/26 10:06:20;;;;;;;13.07;2.55;;;17.60;99.90;;;;;;5111089;28;20104;-64
2022/10/26 10:09:16;;;;;;;17.75;3.45;;;17.50;99.90;;;;;;5106324;28;20073;-66
2022/10/26 10:12:01;;;;;;;19.20;3.72;;;17.50;99.90;;;;;;5092880;28;20055;-66
2022/10/26 10:14:32;;;;;;;13.20;2.38;;;17.60;99.90;;;;;;5079857;28;20204;-66
2022/10/26 10:17:15;;;;;;;20.35;3.00;;;17.60;99.90;;;;;;5085640;28;20491;-66
2022/10/26 10:19:47;;;;;;;24.42;3.72;;;17.60;99.90;;;;;;5072881;28;20048;-69
2022/10/26 10:22:14;;;;;;;14.70;2.97;;;17.70;99.90;;;;;;5072350;28;20416;-70
2022/10/26 10:24:42;;;;;;;13.27;2.45;;;17.70;99.90;;;;;;5090473;28;20102;-68
2022/10/26 10:27:12;;;;;;;10.77;2.45;;;17.80;99.90;;;;;;5090434;28;20458;-69
2022/10/26 10:29:40;;;;;;;14.48;3.20;;;17.80;99.90;;;;;;5070386;28;20637;-67
2022/10/26 10:32:14;;;;;;;15.52;2.83;;;17.90;99.90;;;;;;5089520;28;20078;-69
2022/10/26 10:34:41;;;;;;;19.58;3.05;;;17.90;99.90;;;;;;5047310;28;20054;-67
2022/10/26 10:37:24;;;;;;;9.63;2.78;;;18.00;99.90;;;;;;5071379;28;20085;-69
2022/10/26 10:39:55;;;;;;;;;;;18.10;99.90;;;;;;5071055;28;20058;-69
2022/10/26 10:42:23;;;;;;;15.18;3.05;;;18.20;99.90;;;;;;5069323;28;19930;-69
2022/10/26 10:44:51;;;;;;;19.30;2.97;;;18.30;99.90;;;;;;5089211;28;20051;-70
2022/10/26 10:47:28;;;;;;;13.55;2.53;;;18.40;99.90;;;;;;5088669;28;20040;-70
2022/10/26 10:50:06;;;;;;;14.13;2.45;;;18.50;99.90;;;;;;5065061;28;20131;-72
2022/10/26 10:52:34;;;;;;;15.85;3.58;;;18.60;99.90;;;;;;5071263;28;20414;-71
2022/10/26 10:55:03;;;;;;;16.48;3.40;;;18.60;99.90;;;;;;5070838;28;20411;-70
2022/10/26 10:57:57;;;;;;;14.60;2.72;;;18.60;99.90;;;;;;5085132;28;20528;-71
2022/10/26 11:00:24;;;;;;;13.88;3.65;;;18.60;99.90;;;;;;5066665;28;20100;-69
2022/10/26 11:03:18;;;;;;;13.82;3.25;;;18.70;99.90;;;;;;5072624;28;20048;-69
2022/10/26 11:06:09;;;;;;;16.25;3.25;;;18.70;99.90;;;;;;5065242;28;20054;-70
2022/10/26 11:08:54;;;;;;;12.07;2.78;;;18.70;99.90;;;;;;5091641;28;20044;-71
2022/10/26 11:11:31;;;;;;;17.17;3.28;;;18.70;99.90;;;;;;5054563;28;20122;-71
2022/10/26 11:14:01;;;;;;;16.35;3.55;;;18.80;99.90;;;;;;5068590;28;20525;-71
2022/10/26 11:16:30;;;;;;;18.55;4.40;;;18.80;99.90;;;;;;5092419;28;20283;-71
2022/10/26 11:19:21;;;;;;;17.52;3.97;;;18.90;99.90;;;;;;5068438;28;20060;-72
2022/10/26 11:21:52;;;;;;;14.27;2.88;;;18.90;99.90;;;;;;5033545;28;20113;-71
2022/10/26 11:24:18;;;;;;;15.77;2.20;;;18.90;99.90;;;;;;5054617;28;20052;-71
2022/10/26 11:26:54;;;;;;;16.65;3.40;;;18.90;99.90;;;;;;5071890;28;20051;-71
2022/10/26 11:29:21;;;;;;;14.65;3.40;;;18.80;99.90;;;;;;5037875;28;20076;-71
2022/10/26 11:32:18;;;;;;;14.85;2.70;;;18.90;99.90;;;;;;5072241;28;20044;-70
2022/10/26 11:35:07;;;;;;;11.25;2.33;;;18.90;99.90;;;;;;5035240;28;20050;-71
2022/10/26 11:37:52;;;;;;;19.83;4.10;;;19.00;99.90;;;;;;5073291;28;20461;-71
2022/10/26 11:40:44;;;;;;;20.73;4.72;;;19.00;99.90;;;;;;5058341;28;20045;-71
2022/10/26 11:43:39;;;;;;;13.57;2.30;;;19.00;99.90;;;;;;5056476;28;20511;-70
2022/10/26 11:46:17;;;;;;;13.48;3.42;;;19.00;99.90;;;;;;5053151;28;20057;-70
2022/10/26 11:48:50;;;;;;;16.10;2.78;;;19.10;99.90;;;;;;5053067;28;20049;-71
2022/10/26 11:51:30;;;;;;;14.10;2.20;;;19.10;99.90;;;;;;5069922;28;20048;-71
2022/10/26 11:53:57;;;;;;;15.45;3.17;;;19.10;99.90;;;;;;5053691;28;20053;-70
2022/10/26 11:56:32;;;;;;;9.98;2.38;;;19.00;99.90;;;;;;5053592;28;20045;-70
2022/10/26 11:58:59;;;;;;;15.73;5.03;;;18.90;99.90;;;;;;5053899;28;20094;-71
2022/10/26 12:01:25;;;;;;;16.50;2.95;;;18.90;99.90;;;;;;5036573;28;20044;-70
2022/10/26 12:03:52;;;;;;;9.43;2.28;;;18.90;99.90;;;;;;5054005;28;20146;-71
2022/10/26 12:06:25;;;;;;;16.98;2.92;;;19.00;99.90;;;;;;5071371;28;20055;-70
2022/10/26 12:09:15;;;;;;;15.38;3.17;;;19.00;99.90;;;;;;5053592;28;20496;-70
2022/10/26 12:11:49;;;;;;;14.05;4.07;;;19.10;99.90;;;;;;5037372;28;20054;-70
2022/10/26 12:14:28;;;;;;;25.48;5.10;;;19.10;99.90;;;;;;5054115;28;20166;-70
2022/10/26 12:17:10;;;;;;;13.98;2.97;;;19.20;99.90;;;;;;5053021;28;20055;-70
2022/10/26 12:19:50;;;;;;;14.35;2.83;;;19.10;99.90;;;;;;5064730;28;20148;-70
2022/10/26 12:22:18;;;;;;;11.80;2.33;;;19.10;99.90;;;;;;5073721;28;20420;-71
2022/10/26 12:24:46;;;;;;;11.13;3.03;;;19.10;99.90;;;;;;5073506;28;20050;-71
2022/10/26 12:27:38;;;;;;;27.45;3.42;;;19.20;99.90;;;;;;5073357;28;20058;-71
2022/10/26 12:30:14;;;;;;;13.07;3.10;;;19.20;99.90;;;;;;5073988;28;20050;-71
2022/10/26 12:32:44;;;;;;;15.55;3.20;;;19.20;99.90;;;;;;5091167;28;20123;-71
2022/10/26 12:35:32;;;;;;;20.50;3.72;;;19.30;99.90;;;;;;5091174;28;20048;-71
2022/10/26 12:38:00;;;;;;;18.63;3.83;;;19.20;99.90;;;;;;5091149;28;20044;-70
2022/10/26 12:40:29;;;;;;;23.08;3.85;;;19.20;99.90;;;;;;5073048;28;20068;-71
2022/10/26 12:42:57;;;;;;;22.65;5.35;;;19.10;99.90;;;;;;5091152;28;20051;-71
2022/10/26 12:45:23;;;;;;;12.40;4.10;;;19.10;99.90;;;;;;5057012;28;20048;-71
2022/10/26 12:47:50;;;;;;;19.35;3.25;;;19.00;99.90;;;;;;5090952;28;20123;-70
2022/10/26 12:50:21;;;;;;;13.95;3.17;;;18.90;99.90;;;;;;5072962;28;20115;-70
2022/10/26 12:52:48;;;;;;;21.83;4.35;;;18.90;99.90;;;;;;5091223;28;20048;-70
2022/10/26 12:55:40;;;;;;;11.40;3.13;;;18.90;99.90;;;;;;5091268;28;20044;-70
2022/10/26 12:58:28;;;;;;;25.35;4.78;;;18.90;99.90;;;;;;5073301;28;20113;-70
2022/10/26 13:00:58;;;;;;;14.43;3.28;;;18.80;99.90;;;;;;5088404;28;20056;-70